Time;durP1;ratioP1;P1;durP2;ratioP2;P2;SDS_P1;SDS_P2;PMS_P1;PMS_P2;Temp;Humidity;BMP_temperature;BMP_pressure;BME280_temperature;BME280_humidity;BME280_pressure;Samples;Min_cycle;Max_cycle;Signal;HPM_P1;HPM_P2
2023/10/31 00:01:23;;;;;;;1.20;1.20;;;;;;;17.73;59.74;97171.41;6977524;28;20296;-87
2023/10/31 00:04:46;;;;;;;1.40;1.30;;;;;;;17.54;60.45;97174.06;6956028;28;20202;-88
2023/10/31 00:08:07;;;;;;;1.43;1.13;;;;;;;17.87;59.54;97183.25;6972437;28;20236;-88
2023/10/31 00:11:29;;;;;;;1.20;1.20;;;;;;;17.65;60.26;97181.03;6972158;28;20688;-88
2023/10/31 00:14:50;;;;;;;1.20;1.20;;;;;;;17.68;59.89;97193.28;6971191;28;20265;-89
2023/10/31 00:18:12;;;;;;;1.10;1.10;;;;;;;17.41;60.23;97193.00;6972367;28;20317;-88
2023/10/31 00:21:34;;;;;;;1.40;1.40;;;;;;;17.48;60.59;97191.56;6968776;28;20200;-88
2023/10/31 00:24:56;;;;;;;1.20;1.20;;;;;;;17.29;61.41;97196.06;6960164;28;20949;-88
2023/10/31 00:28:17;;;;;;;1.50;1.40;;;;;;;17.26;61.36;97188.47;6970712;28;20311;-87
2023/10/31 00:31:40;;;;;;;2.93;1.90;;;;;;;17.18;61.37;97215.53;6971416;28;20627;-89
2023/10/31 00:35:03;;;;;;;1.30;1.30;;;;;;;16.73;61.08;97124.16;6963036;28;20220;-88
2023/10/31 00:38:26;;;;;;;1.50;1.40;;;;;;;16.92;61.55;97212.19;6950514;28;20319;-88
2023/10/31 00:41:47;;;;;;;1.40;1.37;;;;;;;16.78;62.21;97204.94;6960006;28;20219;-89
2023/10/31 00:45:10;;;;;;;1.30;1.30;;;;;;;17.04;61.37;97214.56;6967891;28;20264;-89
2023/10/31 00:48:36;;;;;;;0.90;0.90;;;;;;;16.77;61.57;97216.94;6965386;28;20274;-89
2023/10/31 00:51:57;;;;;;;1.60;1.20;;;;;;;16.78;62.49;97224.81;6970653;28;20201;-89
2023/10/31 00:55:20;;;;;;;1.50;1.40;;;;;;;16.96;62.79;97231.47;6970079;28;20374;-88
2023/10/31 00:58:41;;;;;;;1.17;1.13;;;;;;;17.15;61.88;97233.25;6943960;28;20287;-89
2023/10/31 01:02:03;;;;;;;2.53;1.23;;;;;;;17.32;61.40;97233.66;6943811;28;20613;-89
2023/10/31 01:05:24;;;;;;;1.13;1.13;;;;;;;16.64;61.92;97168.59;6943186;28;20341;-88
2023/10/31 01:08:46;;;;;;;1.63;1.53;;;;;;;17.20;62.14;97235.09;6965116;28;20220;-89
2023/10/31 01:12:10;;;;;;;1.30;1.20;;;;;;;17.23;62.27;97240.00;6970711;28;20305;-89
2023/10/31 01:15:31;;;;;;;1.40;1.30;;;;;;;16.99;62.81;97242.63;6959961;28;20227;-89
2023/10/31 01:18:53;;;;;;;1.30;1.30;;;;;;;17.21;62.59;97240.28;6955906;28;20361;-88
2023/10/31 01:22:14;;;;;;;1.50;1.40;;;;;;;17.04;63.02;97239.06;6951064;28;20214;-89
2023/10/31 01:25:36;;;;;;;1.30;1.30;;;;;;;17.10;63.21;97255.06;6955128;28;20802;-89
2023/10/31 01:28:59;;;;;;;1.40;1.30;;;;;;;17.06;63.05;97225.97;6966119;28;20365;-88
2023/10/31 01:32:20;;;;;;;1.50;1.40;;;;;;;17.00;63.40;97262.50;6971313;28;20207;-89
2023/10/31 01:35:42;;;;;;;1.90;1.30;;;;;;;17.08;63.05;97278.22;6963381;28;20319;-89
2023/10/31 01:39:03;;;;;;;1.50;1.40;;;;;;;16.99;63.41;97274.50;6966193;28;20361;-87
2023/10/31 01:42:25;;;;;;;1.77;1.40;;;;;;;16.99;63.14;97269.84;6970015;28;20301;-88
2023/10/31 01:45:48;;;;;;;1.50;1.40;;;;;;;17.09;62.76;97264.34;6956157;28;20318;-89
2023/10/31 01:49:09;;;;;;;2.57;1.87;;;;;;;17.22;62.91;97290.13;6941224;28;20344;-88
2023/10/31 01:52:32;;;;;;;1.70;1.60;;;;;;;16.90;62.74;97246.22;6960991;28;20295;-89
2023/10/31 01:55:55;;;;;;;3.00;1.73;;;;;;;17.03;63.02;97303.59;6968777;28;20364;-88
2023/10/31 01:59:17;;;;;;;1.33;1.33;;;;;;;16.52;63.27;97293.25;6969511;28;20228;-88
2023/10/31 02:02:42;;;;;;;2.60;1.57;;;;;;;16.44;63.58;97319.13;6969007;28;20202;-88
2023/10/31 02:06:04;;;;;;;1.60;1.50;;;;;;;16.76;61.95;97324.16;6962763;28;20211;-89
2023/10/31 02:09:27;;;;;;;1.20;1.20;;;;;;;16.68;60.79;97322.84;6964503;28;20280;-89
2023/10/31 02:12:48;;;;;;;1.50;1.40;;;;;;;16.64;60.41;97338.09;6961977;28;20243;-88
2023/10/31 02:16:10;;;;;;;1.70;1.23;;;;;;;16.88;59.91;97330.09;6942604;28;20757;-88
2023/10/31 02:19:33;;;;;;;1.30;1.30;;;;;;;16.60;57.69;97276.34;6944160;28;20256;-88
2023/10/31 02:22:55;;;;;;;2.73;1.20;;;;;;;17.08;57.50;97330.78;6962655;28;20680;-88
2023/10/31 02:26:17;;;;;;;3.10;1.10;;;;;;;16.89;57.42;97340.72;6968920;28;20189;-89
2023/10/31 02:29:40;;;;;;;1.57;1.47;;;;;;;16.92;57.20;97344.78;6959853;28;20777;-87
2023/10/31 02:33:01;;;;;;;1.40;1.30;;;;;;;16.55;57.50;97318.00;6948064;28;20254;-89
2023/10/31 02:36:23;;;;;;;1.50;1.40;;;;;;;16.50;57.41;97320.75;6969194;28;20274;-89
2023/10/31 02:39:46;;;;;;;1.10;1.10;;;;;;;16.42;56.97;97334.09;6967075;28;20223;-89
2023/10/31 02:43:08;;;;;;;1.50;1.40;;;;;;;16.17;56.50;97296.88;6967309;28;20246;-89
2023/10/31 02:46:29;;;;;;;1.23;1.23;;;;;;;16.02;55.83;97336.91;6950990;28;20253;-89
2023/10/31 02:49:51;;;;;;;1.20;1.20;;;;;;;16.33;56.11;97312.06;6941558;28;20369;-89
2023/10/31 02:53:12;;;;;;;1.47;1.30;;;;;;;16.16;56.63;97335.25;6951045;28;20202;-89
2023/10/31 02:56:35;;;;;;;2.70;1.30;;;;;;;16.29;57.00;97329.22;6972161;28;20235;-88
2023/10/31 02:59:56;;;;;;;1.30;1.30;;;;;;;15.98;57.94;97293.13;6946583;28;20686;-89
2023/10/31 03:03:18;;;;;;;2.50;1.70;;;;;;;16.34;57.39;97346.34;6968631;28;20283;-90
2023/10/31 03:06:39;;;;;;;1.80;1.50;;;;;;;16.16;57.98;97357.00;6974382;28;20235;-89
2023/10/31 03:10:01;;;;;;;1.60;1.50;;;;;;;16.10;58.44;97366.25;6965276;28;20355;-89
2023/10/31 03:13:24;;;;;;;1.50;1.40;;;;;;;15.66;58.45;97289.97;6971586;28;20207;-89
2023/10/31 03:16:45;;;;;;;2.87;1.70;;;;;;;16.16;58.28;97368.69;6973172;28;20719;-90
2023/10/31 03:20:08;;;;;;;2.80;2.00;;;;;;;16.02;58.09;97355.94;6973986;28;20213;-89
2023/10/31 03:23:30;;;;;;;2.33;1.70;;;;;;;15.96;58.49;97376.88;6972730;28;20574;-89
2023/10/31 03:26:51;;;;;;;1.53;1.43;;;;;;;15.70;58.91;97374.44;6946157;28;20631;-88
2023/10/31 03:30:14;;;;;;;1.47;1.37;;;;;;;15.85;57.47;97334.50;6964658;28;20341;-89
2023/10/31 03:33:36;;;;;;;1.30;1.20;;;;;;;15.80;57.82;97369.03;6947842;28;20726;-89
2023/10/31 03:36:57;;;;;;;1.50;1.50;;;;;;;15.63;58.63;97371.19;6945752;28;20284;-89
2023/10/31 03:40:19;;;;;;;1.57;1.47;;;;;;;15.89;58.66;97389.94;6969919;28;20259;-89
2023/10/31 03:43:40;;;;;;;2.73;1.60;;;;;;;16.12;57.58;97388.53;6972768;28;20290;-89
2023/10/31 03:47:03;;;;;;;2.67;2.10;;;;;;;16.07;56.31;97394.00;6953415;28;20225;-89
2023/10/31 03:50:25;;;;;;;1.73;1.40;;;;;;;16.05;57.06;97383.38;6945353;28;20253;-88
2023/10/31 03:53:46;;;;;;;3.77;2.17;;;;;;;16.27;56.98;97394.78;6972091;28;20204;-89
2023/10/31 03:57:08;;;;;;;2.30;2.10;;;;;;;16.50;56.37;97387.94;6972417;28;20809;-89
2023/10/31 04:00:29;;;;;;;1.50;1.40;;;;;;;16.28;56.01;97390.16;6972553;28;20231;-89
2023/10/31 04:03:52;;;;;;;3.33;1.87;;;;;;;16.19;56.32;97391.78;6969062;28;20772;-89
2023/10/31 04:07:13;;;;;;;2.03;1.87;;;;;;;16.24;56.61;97398.06;6972129;28;20366;-89
2023/10/31 04:10:35;;;;;;;2.57;2.37;;;;;;;15.84;56.68;97351.88;6944954;28;20700;-89
2023/10/31 04:13:57;;;;;;;1.90;1.80;;;;;;;16.12;56.92;97408.41;6957500;28;20569;-89
2023/10/31 04:17:18;;;;;;;1.50;1.40;;;;;;;15.93;57.05;97387.50;6972151;28;20313;-89
2023/10/31 04:20:41;;;;;;;1.37;1.37;;;;;;;16.03;57.02;97411.91;6969120;28;20337;-89
2023/10/31 04:24:03;;;;;;;1.10;1.10;;;;;;;15.78;58.00;97418.19;6970112;28;20223;-89
2023/10/31 04:27:24;;;;;;;1.40;1.40;;;;;;;15.56;57.35;97341.56;6971684;28;20677;-89
2023/10/31 04:30:46;;;;;;;1.40;1.30;;;;;;;15.84;57.37;97427.97;6971925;28;20283;-89
2023/10/31 04:34:07;;;;;;;1.33;1.33;;;;;;;15.93;57.37;97423.63;6970558;28;20286;-89
2023/10/31 04:37:30;;;;;;;4.97;1.30;;;;;;;16.02;57.38;97429.31;6970028;28;20775;-89
2023/10/31 04:40:52;;;;;;;1.73;1.63;;;;;;;15.67;58.65;97432.03;6971571;28;20678;-90
2023/10/31 04:44:13;;;;;;;1.40;1.30;;;;;;;15.34;58.76;97356.50;6970524;28;20297;-90
2023/10/31 04:47:35;;;;;;;1.47;1.33;;;;;;;15.68;59.09;97422.81;6971957;28;20266;-89
2023/10/31 04:50:57;;;;;;;1.60;1.50;;;;;;;15.45;58.42;97429.56;6966780;28;20245;-90
2023/10/31 04:54:19;;;;;;;1.20;1.20;;;;;;;14.65;59.01;97301.78;6970665;28;20583;-90
2023/10/31 04:57:41;;;;;;;1.30;1.20;;;;;;;15.00;57.52;97299.16;6969401;28;20632;-90
2023/10/31 05:01:03;;;;;;;2.10;1.20;;;;;;;15.56;58.00;97433.09;6970476;28;20289;-87
2023/10/31 05:04:24;;;;;;;1.60;1.50;;;;;;;15.76;57.42;97420.34;6957322;28;20236;-89
2023/10/31 05:07:46;;;;;;;3.70;1.70;;;;;;;15.95;56.47;97435.06;6969982;28;20227;-89
2023/10/31 05:11:08;;;;;;;1.33;1.23;;;;;;;15.44;58.07;97399.94;6961891;28;20258;-89
2023/10/31 05:14:30;;;;;;;1.30;1.30;;;;;;;15.78;57.40;97437.22;6942005;28;20215;-89
2023/10/31 05:17:51;;;;;;;2.50;1.50;;;;;;;15.45;58.10;97450.50;6943546;28;20790;-89
2023/10/31 05:21:13;;;;;;;1.53;1.43;;;;;;;15.46;58.11;97450.22;6968169;28;20345;-89
2023/10/31 05:24:35;;;;;;;1.40;1.30;;;;;;;14.85;58.93;97395.97;6969699;28;20272;-90
2023/10/31 05:27:59;;;;;;;1.13;1.13;;;;;;;15.34;58.29;97446.13;6971046;28;20219;-86
2023/10/31 05:31:20;;;;;;;1.20;1.20;;;;;;;15.44;57.84;97454.28;6971649;28;20235;-87
2023/10/31 05:34:42;;;;;;;1.90;1.67;;;;;;;15.22;57.26;97374.94;6967665;28;20697;-88
2023/10/31 05:38:03;;;;;;;2.80;2.60;;;;;;;15.78;56.80;97472.56;6972382;28;21621;-87
2023/10/31 05:41:25;;;;;;;2.43;1.50;;;;;;;15.59;57.35;97463.28;6970116;28;20289;-89
2023/10/31 05:44:48;;;;;;;1.43;1.33;;;;;;;15.53;56.75;97452.69;6970575;28;20290;-89
2023/10/31 05:48:10;;;;;;;1.60;1.50;;;;;;;15.47;57.07;97472.75;6969198;28;20604;-89
2023/10/31 05:51:31;;;;;;;1.60;1.40;;;;;;;15.62;56.21;97454.59;6962189;28;20519;-89
2023/10/31 05:54:53;;;;;;;2.70;1.53;;;;;;;15.80;55.83;97483.97;6967381;28;20284;-89
2023/10/31 05:58:14;;;;;;;1.30;1.20;;;;;;;15.74;56.49;97467.94;6969617;28;20300;-89
2023/10/31 06:01:37;;;;;;;1.70;1.20;;;;;;;15.69;55.81;97495.09;6970230;28;20301;-87
2023/10/31 06:04:59;;;;;;;6.23;1.60;;;;;;;14.95;56.08;97431.31;6971849;28;20237;-89
2023/10/31 06:08:20;;;;;;;1.30;1.20;;;;;;;14.53;57.05;97442.25;6965618;28;20226;-88
2023/10/31 06:11:43;;;;;;;2.00;1.20;;;;;;;15.02;57.22;97457.13;6941555;28;20331;-89
2023/10/31 06:15:06;;;;;;;1.30;1.30;;;;;;;15.19;57.30;97525.59;6940013;28;20234;-87
2023/10/31 06:18:29;;;;;;;1.50;1.50;;;;;;;15.59;55.17;97517.63;6969399;28;20258;-89
2023/10/31 06:21:50;;;;;;;1.30;1.20;;;;;;;15.14;55.38;97478.59;6969082;28;20206;-90
2023/10/31 06:25:12;;;;;;;2.57;1.47;;;;;;;15.50;55.45;97513.78;6950563;28;20351;-87
2023/10/31 06:28:35;;;;;;;1.70;1.30;;;;;;;15.19;56.64;97531.03;6966756;28;20717;-89
2023/10/31 06:31:57;;;;;;;1.20;1.20;;;;;;;15.18;56.00;97529.41;6957554;28;20220;-89
2023/10/31 06:35:19;;;;;;;1.20;1.10;;;;;;;15.02;56.50;97537.72;6972998;28;20265;-89
2023/10/31 06:38:41;;;;;;;1.47;1.40;;;;;;;15.14;55.45;97474.00;6970753;28;20695;-89
2023/10/31 06:42:03;;;;;;;3.00;1.83;;;;;;;15.28;54.42;97561.22;6968991;28;20352;-89
2023/10/31 06:45:24;;;;;;;1.30;1.20;;;;;;;14.51;55.51;97473.41;6971163;28;20622;-90
2023/10/31 06:48:49;;;;;;;1.10;1.10;;;;;;;14.08;54.49;97435.66;6959097;28;20232;-89
2023/10/31 06:52:12;;;;;;;1.30;1.30;;;;;;;14.53;55.40;97528.19;6973146;28;20239;-88
2023/10/31 06:55:36;;;;;;;1.20;1.20;;;;;;;14.78;54.37;97517.50;6974652;28;20230;-89
2023/10/31 06:58:57;;;;;;;1.63;1.30;;;;;;;15.40;54.18;97580.84;6958181;28;20318;-89
2023/10/31 07:02:19;;;;;;;1.40;1.30;;;;;;;14.53;55.34;97498.38;6971310;28;20207;-88
2023/10/31 07:05:44;;;;;;;3.20;1.27;;;;;;;15.22;54.11;97516.09;6962407;28;20214;-88
2023/10/31 07:09:07;;;;;;;2.33;1.37;;;;;;;14.80;53.54;97475.47;6976097;28;20230;-91
2023/10/31 07:25:38;;;;;;;2.10;1.40;;;;;;;15.49;55.06;97592.81;6847883;28;20208;-90
2023/10/31 07:28:59;;;;;;;1.70;1.60;;;;;;;15.58;54.04;97569.50;6874892;28;20248;-89
2023/10/31 07:32:21;;;;;;;1.50;1.40;;;;;;;15.51;54.77;97574.38;6889423;28;20216;-89
2023/10/31 07:35:42;;;;;;;2.73;2.40;;;;;;;15.05;55.60;97565.16;6882399;28;20233;-88
2023/10/31 07:39:04;;;;;;;2.60;1.97;;;;;;;15.03;55.13;97534.75;6890356;28;20228;-88
2023/10/31 07:42:27;;;;;;;2.53;2.33;;;;;;;15.12;55.37;97519.59;6891980;28;20211;-88
2023/10/31 07:45:49;;;;;;;1.70;1.50;;;;;;;15.03;54.83;97555.63;6886792;28;20237;-88
2023/10/31 07:49:10;;;;;;;1.50;1.40;;;;;;;14.78;55.36;97520.22;6887787;28;20226;-88
2023/10/31 07:52:32;;;;;;;1.40;1.30;;;;;;;15.71;54.66;97623.34;6904339;28;20677;-88
2023/10/31 07:55:53;;;;;;;1.10;1.10;;;;;;;15.39;54.59;97596.31;6984052;28;20231;-88
2023/10/31 07:59:16;;;;;;;3.43;1.40;;;;;;;14.88;54.87;97544.72;6971261;28;20314;-88
2023/10/31 08:02:38;;;;;;;1.87;1.50;;;;;;;15.90;54.36;97614.44;6972057;28;20288;-88
2023/10/31 08:06:00;;;;;;;1.30;1.20;;;;;;;15.78;53.46;97559.50;6975789;28;20682;-88
2023/10/31 08:09:21;;;;;;;1.43;1.40;;;;;;;16.59;52.24;97628.47;6975362;28;20237;-88
2023/10/31 08:12:43;;;;;;;1.50;1.40;;;;;;;16.24;53.64;97620.22;6975224;28;20215;-88
2023/10/31 08:16:07;;;;;;;1.27;1.17;;;;;;;16.25;53.10;97605.53;6971448;28;20234;-88
2023/10/31 08:19:29;;;;;;;1.37;1.27;;;;;;;15.99;53.11;97549.50;6969758;28;20301;-88
2023/10/31 08:22:50;;;;;;;3.27;1.40;;;;;;;16.39;53.39;97650.22;6972868;28;20210;-88
2023/10/31 08:26:12;;;;;;;1.50;1.40;;;;;;;16.60;53.68;97649.97;6969085;28;20625;-87
2023/10/31 08:29:34;;;;;;;1.30;1.20;;;;;;;16.80;52.24;97649.16;6974094;28;20231;-85
2023/10/31 08:32:56;;;;;;;1.97;1.23;;;;;;;17.10;51.45;97657.31;6968954;28;20263;-90
2023/10/31 08:36:18;;;;;;;1.87;1.40;;;;;;;17.00;52.62;97655.41;6971718;28;20258;-90
2023/10/31 08:39:39;;;;;;;1.70;1.47;;;;;;;16.92;51.76;97627.94;6971874;28;20672;-90
2023/10/31 08:43:04;;;;;;;2.00;1.80;;;;;;;16.76;51.82;97590.91;6970482;28;20608;-87
2023/10/31 08:46:25;;;;;;;1.63;1.40;;;;;;;17.00;51.92;97649.16;6960042;28;20640;-89
2023/10/31 08:49:48;;;;;;;3.53;1.40;;;;;;;17.53;50.23;97664.88;6969268;28;20705;-89
2023/10/31 08:53:10;;;;;;;3.03;1.37;;;;;;;17.24;51.61;97666.53;6964106;28;20216;-89
2023/10/31 08:56:32;;;;;;;1.87;1.50;;;;;;;17.19;50.87;97602.00;6969796;28;20234;-89
2023/10/31 08:59:53;;;;;;;2.03;1.80;;;;;;;17.39;51.12;97672.00;6970479;28;20305;-89
2023/10/31 09:03:15;;;;;;;1.40;1.30;;;;;;;16.60;51.99;97649.97;6970824;28;20206;-89
2023/10/31 09:06:38;;;;;;;1.93;1.83;;;;;;;17.16;51.88;97673.34;6970736;28;20279;-89
2023/10/31 09:09:59;;;;;;;3.50;2.20;;;;;;;17.14;52.21;97675.53;6962638;28;20258;-89
2023/10/31 09:13:21;;;;;;;2.83;1.67;;;;;;;17.08;49.89;97615.91;6971043;28;20204;-91
2023/10/31 09:16:43;;;;;;;1.87;1.20;;;;;;;17.49;50.48;97680.13;6971154;28;20240;-88
2023/10/31 09:20:06;;;;;;;4.10;2.27;;;;;;;17.54;50.28;97680.97;6970619;28;20212;-88
2023/10/31 09:23:29;;;;;;;3.77;1.53;;;;;;;17.97;48.53;97660.34;6970281;28;20220;-87
2023/10/31 09:26:51;;;;;;;2.90;1.63;;;;;;;18.17;48.14;97682.88;6969956;28;20217;-89
2023/10/31 09:30:12;;;;;;;3.27;1.93;;;;;;;18.01;48.32;97655.97;6970171;28;20209;-91
2023/10/31 09:33:34;;;;;;;2.93;1.50;;;;;;;18.16;48.45;97680.47;6969614;28;20212;-91
2023/10/31 09:36:56;;;;;;;5.23;1.80;;;;;;;18.04;49.29;97622.69;6969349;28;20224;-90
2023/10/31 09:40:19;;;;;;;3.67;1.40;;;;;;;17.87;48.59;97674.03;6963582;28;20208;-91
2023/10/31 09:43:41;;;;;;;2.53;1.50;;;;;;;17.89;50.39;97669.13;6969939;28;20216;-87
2023/10/31 09:47:02;;;;;;;3.03;1.60;;;;;;;18.38;48.56;97669.97;6970915;28;20682;-85
2023/10/31 09:50:24;;;;;;;3.77;1.77;;;;;;;18.77;47.71;97665.34;6971081;28;20258;-88
2023/10/31 09:53:46;;;;;;;5.23;1.57;;;;;;;18.71;47.39;97650.94;6969194;28;20623;-88
2023/10/31 09:57:09;;;;;;;1.57;1.40;;;;;;;18.95;46.24;97670.13;6970229;28;20238;-87
2023/10/31 10:00:30;;;;;;;3.60;1.70;;;;;;;18.85;46.92;97667.47;6964943;28;20206;-86
2023/10/31 10:03:53;;;;;;;2.33;1.80;;;;;;;18.85;46.61;97672.94;6969390;28;20654;-88
2023/10/31 10:07:16;;;;;;;2.43;1.70;;;;;;;18.42;47.39;97651.97;6970424;28;20233;-88
2023/10/31 10:10:38;;;;;;;3.50;2.50;;;;;;;18.48;47.97;97667.19;6970863;28;20256;-84
2023/10/31 10:14:00;;;;;;;6.00;3.10;;;;;;;18.99;46.10;97663.81;6969698;28;20308;-88
2023/10/31 10:17:24;;;;;;;5.27;2.00;;;;;;;18.68;47.47;97670.63;6977354;28;20234;-87
2023/10/31 10:20:56;;;;;;;6.13;3.57;;;;;;;18.88;46.60;97670.44;6964175;28;20249;-84
2023/10/31 10:24:17;;;;;;;5.07;1.80;;;;;;;18.73;46.95;97667.84;6968880;28;20217;-86
2023/10/31 10:27:40;;;;;;;4.13;2.73;;;;;;;18.58;46.74;97678.06;6966138;28;20240;-89
2023/10/31 10:31:03;;;;;;;3.90;1.90;;;;;;;17.99;47.45;97674.53;6968652;28;20235;-85
2023/10/31 10:34:25;;;;;;;3.67;1.80;;;;;;;18.31;48.37;97688.56;6962140;28;20293;-85
2023/10/31 10:37:47;;;;;;;3.23;2.00;;;;;;;17.89;49.15;97680.03;6967883;28;20232;-83
2023/10/31 10:41:10;;;;;;;6.80;2.10;;;;;;;18.17;48.49;97701.97;6970891;28;20246;-85
2023/10/31 10:44:34;;;;;;;3.37;1.70;;;;;;;17.41;48.53;97591.63;6969638;28;20209;-87
2023/10/31 10:48:00;;;;;;;2.90;1.97;;;;;;;17.74;48.63;97625.56;6958942;28;20256;-87
2023/10/31 10:51:26;;;;;;;2.47;1.63;;;;;;;18.47;48.89;97703.78;6969132;28;20200;-87
2023/10/31 10:54:54;;;;;;;3.93;1.90;;;;;;;18.12;49.06;97707.50;6968026;28;20211;-87
2023/10/31 10:58:23;;;;;;;2.00;1.90;;;;;;;18.53;48.65;97713.56;6968956;28;20607;-89
2023/10/31 11:01:48;;;;;;;3.40;2.00;;;;;;;17.91;48.47;97705.09;6965896;28;20659;-88
2023/10/31 11:05:11;;;;;;;4.27;2.20;;;;;;;17.31;51.20;97686.97;6961931;28;20216;-87
2023/10/31 11:08:33;;;;;;;3.77;1.90;;;;;;;17.97;50.75;97720.34;6963117;28;20320;-89
2023/10/31 11:11:55;;;;;;;3.73;1.80;;;;;;;18.20;49.56;97730.63;6950398;28;20763;-86
2023/10/31 11:15:17;;;;;;;4.33;2.20;;;;;;;18.09;49.46;97718.94;6947623;28;20631;-90
2023/10/31 11:18:39;;;;;;;5.07;3.00;;;;;;;18.19;50.16;97720.81;6956731;28;20261;-85
2023/10/31 11:22:03;;;;;;;8.53;4.20;;;;;;;18.13;51.33;97719.19;6961579;28;20323;-88
2023/10/31 11:25:24;;;;;;;8.60;3.90;;;;;;;18.32;49.96;97680.13;6953593;28;20544;-90
2023/10/31 11:28:46;;;;;;;5.70;2.63;;;;;;;18.52;50.63;97722.88;6962152;28;20258;-87
2023/10/31 11:32:09;;;;;;;3.47;2.10;;;;;;;18.48;49.94;97714.44;6973576;28;20346;-85
2023/10/31 11:35:31;;;;;;;7.20;3.90;;;;;;;18.36;50.36;97708.50;6974194;28;20213;-88
2023/10/31 11:39:11;;;;;;;7.70;2.87;;;;;;;18.44;49.80;97716.09;6971394;28;20242;-89
2023/10/31 11:42:33;;;;;;;5.63;2.97;;;;;;;18.92;49.38;97720.69;6964692;28;20200;-88
2023/10/31 11:46:00;;;;;;;5.10;3.67;;;;;;;18.88;48.83;97724.28;6969660;28;20575;-87
2023/10/31 11:49:48;;;;;;;4.43;3.50;;;;;;;19.02;48.03;97722.53;6947039;28;20238;-88
2023/10/31 11:53:11;;;;;;;6.00;1.90;;;;;;;18.88;48.44;97735.19;6971457;28;20211;-88
2023/10/31 11:56:34;;;;;;;4.10;2.73;;;;;;;18.82;48.52;97733.59;6960930;28;20267;-88
2023/10/31 11:59:56;;;;;;;6.37;3.03;;;;;;;18.72;48.83;97730.94;6959000;28;20341;-89
2023/10/31 12:03:18;;;;;;;2.77;2.50;;;;;;;18.29;50.74;97742.59;6971307;28;20338;-88
2023/10/31 12:06:40;;;;;;;7.37;3.30;;;;;;;18.67;49.77;97731.78;6971823;28;20686;-89
2023/10/31 12:10:02;;;;;;;4.30;2.10;;;;;;;18.80;49.03;97742.06;6967782;28;20235;-89
2023/10/31 12:13:24;;;;;;;4.13;1.90;;;;;;;18.76;50.93;97732.00;6960132;28;20210;-88
2023/10/31 12:16:46;;;;;;;5.87;2.10;;;;;;;18.39;51.39;97674.38;6961050;28;20645;-89
2023/10/31 12:20:09;;;;;;;3.20;1.80;;;;;;;18.78;50.57;97738.81;6949275;28;20236;-87
2023/10/31 12:23:31;;;;;;;5.73;2.80;;;;;;;18.15;51.27;97674.19;6963950;28;20225;-90
2023/10/31 12:26:52;;;;;;;6.60;2.27;;;;;;;18.82;51.14;97744.53;6971956;28;20295;-88
2023/10/31 12:30:16;;;;;;;4.07;2.10;;;;;;;17.95;51.34;97605.28;6962322;28;20296;-88
2023/10/31 12:33:38;;;;;;;6.67;2.10;;;;;;;18.76;50.68;97721.06;6961013;28;20619;-88
2023/10/31 12:37:01;;;;;;;2.83;1.90;;;;;;;18.55;50.65;97682.19;6956484;28;20235;-88
2023/10/31 12:40:23;;;;;;;3.37;2.23;;;;;;;18.81;51.20;97724.56;6964062;28;20682;-88
2023/10/31 12:43:44;;;;;;;4.53;2.60;;;;;;;18.97;50.83;97730.75;6967853;28;20211;-89
2023/10/31 12:47:09;;;;;;;9.20;3.23;;;;;;;18.96;51.56;97757.25;6971987;28;20267;-88
2023/10/31 12:50:31;;;;;;;3.90;2.70;;;;;;;18.46;51.71;97670.19;6960296;28;20205;-88
2023/10/31 12:53:53;;;;;;;6.03;2.10;;;;;;;19.04;51.79;97751.19;6965436;28;20232;-88
2023/10/31 12:57:16;;;;;;;3.17;2.30;;;;;;;19.14;52.11;97753.03;6988160;28;20217;-88
2023/10/31 13:00:38;;;;;;;5.17;2.80;;;;;;;19.36;51.56;97745.22;6993815;28;20232;-89
2023/10/31 13:04:01;;;;;;;3.93;2.60;;;;;;;19.16;52.12;97751.63;6993552;28;20205;-89
2023/10/31 13:07:27;;;;;;;2.90;1.90;;;;;;;19.23;51.67;97740.44;6997869;28;20237;-89
2023/10/31 13:10:50;;;;;;;2.93;1.60;;;;;;;18.92;51.26;97748.00;6997200;28;20197;-87
2023/10/31 13:14:12;;;;;;;1.47;1.40;;;;;;;18.42;51.65;97747.47;7001850;28;20205;-88
2023/10/31 13:17:36;;;;;;;1.70;1.47;;;;;;;18.76;50.61;97756.59;7005079;28;20239;-89
2023/10/31 13:20:59;;;;;;;2.70;1.70;;;;;;;18.22;53.89;97747.56;6991198;28;20198;-88
2023/10/31 13:24:20;;;;;;;1.37;1.30;;;;;;;18.22;53.86;97761.19;6992873;28;20197;-89
2023/10/31 13:27:43;;;;;;;2.63;1.50;;;;;;;18.72;52.94;97756.34;6990722;28;20251;-89
2023/10/31 13:31:05;;;;;;;2.70;1.40;;;;;;;18.81;52.50;97772.94;6980558;28;20205;-89
2023/10/31 13:34:27;;;;;;;2.00;1.30;;;;;;;18.62;52.09;97774.66;6990883;28;20309;-88
2023/10/31 13:37:50;;;;;;;1.70;1.60;;;;;;;18.26;51.90;97754.06;6976425;28;20233;-87
2023/10/31 13:41:11;;;;;;;1.70;1.43;;;;;;;18.11;52.74;97786.88;6974115;28;20209;-88
2023/10/31 13:44:33;;;;;;;1.20;1.20;;;;;;;17.68;53.69;97795.69;6963145;28;20213;-88
2023/10/31 13:47:54;;;;;;;1.83;1.70;;;;;;;18.39;52.19;97781.59;6961380;28;20229;-88
2023/10/31 13:51:16;;;;;;;1.87;1.40;;;;;;;18.09;51.49;97740.78;6948359;28;20351;-88
2023/10/31 13:54:39;;;;;;;4.60;1.50;;;;;;;18.00;51.85;97733.44;6969576;28;20204;-88
2023/10/31 13:58:01;;;;;;;2.07;1.40;;;;;;;18.02;52.21;97785.78;6968264;28;20246;-87
2023/10/31 14:01:24;;;;;;;3.63;2.67;;;;;;;17.43;53.58;97694.88;6971302;28;20217;-88
2023/10/31 14:04:46;;;;;;;5.30;3.20;;;;;;;18.42;53.55;97800.16;6958632;28;20211;-88
2023/10/31 14:08:08;;;;;;;8.10;4.27;;;;;;;18.04;53.65;97754.41;6954784;28;20267;-88
2023/10/31 14:11:31;;;;;;;5.23;3.40;;;;;;;17.97;55.23;97789.34;6969563;28;20344;-88
2023/10/31 14:14:52;;;;;;;3.23;1.77;;;;;;;18.17;55.08;97805.66;6962650;28;20212;-88
2023/10/31 14:18:15;;;;;;;2.37;2.10;;;;;;;17.07;58.65;97824.81;6970626;28;20226;-88
2023/10/31 14:21:37;;;;;;;2.17;1.97;;;;;;;16.41;59.60;97762.28;6966021;28;20211;-83
2023/10/31 14:24:58;;;;;;;3.90;2.20;;;;;;;17.32;59.35;97830.28;6969211;28;20212;-86
2023/10/31 14:28:21;;;;;;;5.00;2.20;;;;;;;17.05;59.25;97828.88;6970206;28;20349;-86
2023/10/31 14:31:43;;;;;;;3.30;2.00;;;;;;;17.00;58.33;97809.81;6960731;28;20199;-86
2023/10/31 14:35:06;;;;;;;2.50;2.13;;;;;;;17.06;57.74;97785.03;6952938;28;20245;-86
2023/10/31 14:38:27;;;;;;;3.67;2.20;;;;;;;17.86;57.41;97823.19;6970598;28;20232;-89
2023/10/31 14:41:49;;;;;;;4.10;2.40;;;;;;;17.31;57.68;97830.53;6961140;28;20205;-87
2023/10/31 14:45:12;;;;;;;1.67;1.57;;;;;;;17.66;56.88;97836.84;6954713;28;20223;-88
2023/10/31 14:48:33;;;;;;;2.33;1.90;;;;;;;17.63;56.32;97792.97;6968318;28;20732;-87
2023/10/31 14:51:55;;;;;;;4.03;2.13;;;;;;;18.09;56.38;97822.59;6974985;28;20208;-88
2023/10/31 14:55:17;;;;;;;3.10;2.00;;;;;;;18.09;56.23;97836.25;6973758;28;20204;-88
2023/10/31 14:58:38;;;;;;;3.50;2.30;;;;;;;17.89;56.00;97791.81;6974344;28;20262;-87
2023/10/31 15:02:01;;;;;;;5.20;3.77;;;;;;;17.55;56.78;97731.66;6975009;28;20299;-88
2023/10/31 15:05:23;;;;;;;4.33;3.70;;;;;;;18.07;56.76;97843.06;6973951;28;20285;-88
2023/10/31 15:08:45;;;;;;;4.23;2.90;;;;;;;18.00;56.26;97851.56;6973491;28;20239;-88
2023/10/31 15:12:07;;;;;;;2.60;2.03;;;;;;;18.29;55.35;97847.09;6973772;28;20298;-88
2023/10/31 15:15:29;;;;;;;2.83;1.90;;;;;;;17.45;55.02;97769.81;6973842;28;20208;-88
2023/10/31 15:18:52;;;;;;;3.30;2.07;;;;;;;18.14;55.33;97863.53;6964242;28;20287;-89
2023/10/31 15:22:13;;;;;;;4.30;2.83;;;;;;;18.23;55.14;97853.66;6966450;28;20303;-88
2023/10/31 15:25:35;;;;;;;5.07;2.70;;;;;;;18.50;54.77;97867.00;6971667;28;20213;-89
2023/10/31 15:28:57;;;;;;;2.40;2.20;;;;;;;17.96;54.99;97871.44;6971791;28;20611;-88
2023/10/31 15:32:18;;;;;;;3.37;2.73;;;;;;;17.89;57.37;97898.19;6974354;28;20196;-88
2023/10/31 15:35:41;;;;;;;5.30;2.60;;;;;;;17.09;59.61;97893.44;6970552;28;20249;-87
2023/10/31 15:39:03;;;;;;;4.43;2.20;;;;;;;17.46;58.59;97904.97;6972811;28;20266;-88
2023/10/31 15:42:25;;;;;;;4.77;2.53;;;;;;;16.78;60.55;97907.19;6973274;28;20364;-86
2023/10/31 15:45:46;;;;;;;6.17;4.80;;;;;;;16.52;61.01;97906.25;6970489;28;20266;-89
2023/10/31 15:49:08;;;;;;;6.30;4.77;;;;;;;16.52;61.26;97859.19;6961590;28;20580;-88
2023/10/31 15:52:31;;;;;;;4.17;3.00;;;;;;;17.32;60.02;97903.00;6967780;28;20345;-88
2023/10/31 15:55:52;;;;;;;3.17;2.40;;;;;;;17.41;59.66;97923.22;6974998;28;20336;-88
2023/10/31 15:59:14;;;;;;;2.70;2.50;;;;;;;17.34;59.97;97936.28;6969292;28;20322;-88
2023/10/31 16:02:35;;;;;;;4.33;2.57;;;;;;;17.04;59.39;97833.50;6960781;28;20310;-88
2023/10/31 16:05:57;;;;;;;3.73;2.87;;;;;;;17.54;59.01;97941.78;6956598;28;20298;-88